Calumet, MN (55716)

6:32 PM CDT on July 29, 2015 (GMT -0500)
Calumet, MN | | Change Station
CLOSE
Current Station
Personal Weather Station
Location: Bovey, MN
Elevation: 1381 ft
Nearby Weather Stations
Active Advisory: Wind Advisory Active Notice: Public Information Statement

Elev 1381 ft 47.32 °N, 93.28 °W | Updated 49 seconds ago

Mostly Cloudy
Mostly Cloudy
73.8 °F
Feels Like 77 °F
N
2.7
Wind Variable Wind from WSW

Today
High -- | Low -- °F
--% Chance of Precip.
Yesterday
High -- | Low -- °F
Precip. -- in
5:47 AM 8:50 PM
Waxing Gibbous, 97% visible
Pressure 29.84 in
Visibility 10.0 miles
Clouds Few 6500 ft
Heat Index 77 °F
Dew Point 56 °F
Humidity 54%
Rainfall 0.00 in
Snow Depth Not available.
UV 2 out of 12
Pollen 7.50 out of 12
Air Quality Not available.
Flu Activity Not available.
METAR KGPZ 292315Z AUTO 29008G24KT 10SM FEW065 23/11 A2984 RMK AO1

More Conditions Fewer Conditions

Pressure 29.84 in
Visibility 10.0 miles
Clouds Few 6500 ft
Heat Index 77 °F
Dew Point 56 °F
Humidity 54%
Rainfall 0.00 in
Snow Depth Not available.
UV 2 out of 12
Pollen 7.50 out of 12
Air Quality Not available.
Flu Activity Not available.
METAR KGPZ 292315Z AUTO 29008G24KT 10SM FEW065 23/11 A2984 RMK AO1

More Conditions Fewer Conditions

10-Day Weather Forecast

×

Almanac

Astronomy

Jul. 29, 2015 Rise Set
Actual Time
Civil Twilight
Nautical Twilight
Astronomical Twilight
Moon
Length of Visible Light
Length of Day
Tomorrow will be .
, % of the Moon is Illuminated

Today's Extremes

State Highs State Lows

Community

WunderPhotos

Upload Photos

1,842,194 photos uploaded!

WunderBlogs® & News

Nearby

Air Quality

  Air Quality AQ Index Pollutant
Not available.

Snow Depth

Station Depth Elevation

Earthquake Activity

City Distance Mag. Time & Date
Minimum magnitude displayed is 2.5.

Coastal Water Temperatures

Place Temperature

Stations

Nearby Weather Stations

Station Location Temp. Windchill Dew Point Humidity Wind Precip. Elev Updated Type
                   
Wind Advisory
Statement as of 2:47 PM CDT on July 29, 2015

... Wind Advisory remains in effect until 7 PM CDT this evening...

* location... northeast Minnesota and Douglas County Wisconsin.

* Winds... west 15 to 25 mph with gusts up to 40 mph.

* Timing... through early this evening. The winds will peak late
this afternoon. The winds will gradually decrease this evening.

* Impacts... unsecured outdoor objects could be blown around.
Branches and small trees may blow down.

Precautionary/preparedness actions...

A Wind Advisory means that winds of 35 mph are expected. Winds
this strong can make driving difficult... especially for high
profile vehicles. Use extra caution.

Secure loose outdoor objects such as lawn furniture and garbage
cans. Take down hanging planters and other hanging objects such
as wind Chimes and bird feeders.

Be careful in wooded areas as branches and small trees may be
blown down.



G2